sensor_id;sensor_type;location;lat;lon;timestamp;P1;durP1;ratioP1;P2;durP2;ratioP2
16133;SDS011;8172;45.018;5.972;2023-03-01T00:03:56;48.17;;;27.13;;
16133;SDS011;8172;45.018;5.972;2023-03-01T00:09:04;195.70;;;27.10;;
16133;SDS011;8172;45.018;5.972;2023-03-01T00:14:11;37.73;;;22.37;;
16133;SDS011;8172;45.018;5.972;2023-03-01T00:19:18;37.83;;;22.80;;
16133;SDS011;8172;45.018;5.972;2023-03-01T00:24:27;40.63;;;23.17;;
16133;SDS011;8172;45.018;5.972;2023-03-01T00:29:33;37.70;;;22.80;;
16133;SDS011;8172;45.018;5.972;2023-03-01T00:34:40;36.00;;;22.40;;
16133;SDS011;8172;45.018;5.972;2023-03-01T00:39:47;42.80;;;23.83;;
16133;SDS011;8172;45.018;5.972;2023-03-01T00:44:55;37.87;;;21.87;;
16133;SDS011;8172;45.018;5.972;2023-03-01T00:50:02;39.43;;;22.30;;
16133;SDS011;8172;45.018;5.972;2023-03-01T00:55:09;44.37;;;24.60;;
16133;SDS011;8172;45.018;5.972;2023-03-01T01:00:17;38.27;;;21.97;;
16133;SDS011;8172;45.018;5.972;2023-03-01T01:05:25;38.70;;;22.27;;
16133;SDS011;8172;45.018;5.972;2023-03-01T01:10:33;36.70;;;21.83;;
16133;SDS011;8172;45.018;5.972;2023-03-01T01:15:41;37.23;;;22.07;;
16133;SDS011;8172;45.018;5.972;2023-03-01T01:20:48;42.43;;;22.83;;
16133;SDS011;8172;45.018;5.972;2023-03-01T01:25:56;42.03;;;23.23;;
16133;SDS011;8172;45.018;5.972;2023-03-01T01:31:04;38.57;;;23.03;;
16133;SDS011;8172;45.018;5.972;2023-03-01T01:36:12;44.50;;;24.23;;
16133;SDS011;8172;45.018;5.972;2023-03-01T01:41:19;45.70;;;25.20;;
16133;SDS011;8172;45.018;5.972;2023-03-01T01:46:28;39.97;;;23.20;;
16133;SDS011;8172;45.018;5.972;2023-03-01T01:51:39;57.53;;;24.43;;
16133;SDS011;8172;45.018;5.972;2023-03-01T01:56:48;44.63;;;23.73;;
16133;SDS011;8172;45.018;5.972;2023-03-01T02:01:57;49.90;;;24.77;;
16133;SDS011;8172;45.018;5.972;2023-03-01T02:12:18;40.10;;;23.20;;
16133;SDS011;8172;45.018;5.972;2023-03-01T02:17:26;36.47;;;21.77;;
16133;SDS011;8172;45.018;5.972;2023-03-01T02:22:34;43.10;;;22.80;;
16133;SDS011;8172;45.018;5.972;2023-03-01T02:32:51;34.30;;;20.70;;
16133;SDS011;8172;45.018;5.972;2023-03-01T02:38:02;36.30;;;22.03;;
16133;SDS011;8172;45.018;5.972;2023-03-01T02:43:11;35.73;;;21.10;;
16133;SDS011;8172;45.018;5.972;2023-03-01T02:48:19;35.10;;;21.47;;
16133;SDS011;8172;45.018;5.972;2023-03-01T02:53:28;35.47;;;21.27;;
16133;SDS011;8172;45.018;5.972;2023-03-01T02:58:36;34.17;;;20.37;;
16133;SDS011;8172;45.018;5.972;2023-03-01T03:03:45;36.40;;;21.23;;
16133;SDS011;8172;45.018;5.972;2023-03-01T03:08:53;35.97;;;21.87;;
16133;SDS011;8172;45.018;5.972;2023-03-01T03:14:01;39.40;;;22.83;;
16133;SDS011;8172;45.018;5.972;2023-03-01T03:19:09;37.67;;;22.63;;
16133;SDS011;8172;45.018;5.972;2023-03-01T03:24:17;39.83;;;23.87;;
16133;SDS011;8172;45.018;5.972;2023-03-01T03:29:24;37.30;;;21.87;;
16133;SDS011;8172;45.018;5.972;2023-03-01T03:34:31;36.63;;;22.30;;
16133;SDS011;8172;45.018;5.972;2023-03-01T03:39:37;40.40;;;23.23;;
16133;SDS011;8172;45.018;5.972;2023-03-01T03:44:45;53.23;;;27.90;;
16133;SDS011;8172;45.018;5.972;2023-03-01T03:49:52;41.13;;;23.30;;
16133;SDS011;8172;45.018;5.972;2023-03-01T03:54:59;35.27;;;21.80;;
16133;SDS011;8172;45.018;5.972;2023-03-01T04:00:06;33.57;;;20.00;;
16133;SDS011;8172;45.018;5.972;2023-03-01T04:05:18;37.83;;;21.67;;
16133;SDS011;8172;45.018;5.972;2023-03-01T04:10:25;34.73;;;19.80;;
16133;SDS011;8172;45.018;5.972;2023-03-01T04:15:34;40.00;;;22.97;;
16133;SDS011;8172;45.018;5.972;2023-03-01T04:20:41;36.77;;;23.17;;
16133;SDS011;8172;45.018;5.972;2023-03-01T04:25:51;60.83;;;27.50;;
16133;SDS011;8172;45.018;5.972;2023-03-01T04:31:02;93.27;;;26.73;;
16133;SDS011;8172;45.018;5.972;2023-03-01T04:36:13;45.10;;;24.83;;
16133;SDS011;8172;45.018;5.972;2023-03-01T04:41:22;40.00;;;22.43;;
16133;SDS011;8172;45.018;5.972;2023-03-01T04:46:30;39.63;;;22.90;;
16133;SDS011;8172;45.018;5.972;2023-03-01T04:51:37;40.20;;;23.27;;
16133;SDS011;8172;45.018;5.972;2023-03-01T04:56:44;38.87;;;21.87;;
16133;SDS011;8172;45.018;5.972;2023-03-01T05:01:52;36.20;;;21.07;;
16133;SDS011;8172;45.018;5.972;2023-03-01T05:07:00;39.83;;;20.53;;
16133;SDS011;8172;45.018;5.972;2023-03-01T05:12:07;37.87;;;21.47;;
16133;SDS011;8172;45.018;5.972;2023-03-01T05:17:14;35.17;;;20.30;;
16133;SDS011;8172;45.018;5.972;2023-03-01T05:22:21;35.17;;;20.63;;
16133;SDS011;8172;45.018;5.972;2023-03-01T05:27:28;35.27;;;20.73;;
16133;SDS011;8172;45.018;5.972;2023-03-01T05:32:36;34.33;;;19.77;;
16133;SDS011;8172;45.018;5.972;2023-03-01T05:37:43;40.33;;;22.47;;
16133;SDS011;8172;45.018;5.972;2023-03-01T05:42:53;37.10;;;21.50;;
16133;SDS011;8172;45.018;5.972;2023-03-01T05:48:01;37.60;;;21.73;;
16133;SDS011;8172;45.018;5.972;2023-03-01T05:53:11;37.67;;;21.53;;
16133;SDS011;8172;45.018;5.972;2023-03-01T05:58:20;37.43;;;21.47;;
16133;SDS011;8172;45.018;5.972;2023-03-01T06:03:27;38.83;;;21.67;;
16133;SDS011;8172;45.018;5.972;2023-03-01T06:08:34;40.57;;;22.70;;
16133;SDS011;8172;45.018;5.972;2023-03-01T06:13:42;38.87;;;22.47;;
16133;SDS011;8172;45.018;5.972;2023-03-01T06:18:50;40.07;;;22.23;;
16133;SDS011;8172;45.018;5.972;2023-03-01T06:23:57;39.77;;;21.70;;
16133;SDS011;8172;45.018;5.972;2023-03-01T06:29:04;37.47;;;20.57;;
16133;SDS011;8172;45.018;5.972;2023-03-01T06:34:11;37.70;;;21.17;;
16133;SDS011;8172;45.018;5.972;2023-03-01T06:39:18;39.60;;;22.47;;
16133;SDS011;8172;45.018;5.972;2023-03-01T06:44:25;36.80;;;21.87;;
16133;SDS011;8172;45.018;5.972;2023-03-01T06:49:32;38.27;;;21.87;;
16133;SDS011;8172;45.018;5.972;2023-03-01T06:54:39;42.07;;;23.20;;
16133;SDS011;8172;45.018;5.972;2023-03-01T06:59:46;35.63;;;21.00;;
16133;SDS011;8172;45.018;5.972;2023-03-01T07:04:53;40.37;;;23.60;;
16133;SDS011;8172;45.018;5.972;2023-03-01T07:10:00;41.33;;;24.37;;
16133;SDS011;8172;45.018;5.972;2023-03-01T07:15:08;39.23;;;23.03;;
16133;SDS011;8172;45.018;5.972;2023-03-01T07:20:17;71.57;;;26.17;;
16133;SDS011;8172;45.018;5.972;2023-03-01T07:25:26;40.70;;;24.03;;
16133;SDS011;8172;45.018;5.972;2023-03-01T07:30:33;40.87;;;23.70;;
16133;SDS011;8172;45.018;5.972;2023-03-01T07:35:40;44.37;;;22.87;;
16133;SDS011;8172;45.018;5.972;2023-03-01T07:40:47;40.37;;;22.20;;
16133;SDS011;8172;45.018;5.972;2023-03-01T07:45:54;42.43;;;22.93;;
16133;SDS011;8172;45.018;5.972;2023-03-01T07:51:04;40.70;;;23.00;;
16133;SDS011;8172;45.018;5.972;2023-03-01T07:56:12;38.80;;;22.43;;
16133;SDS011;8172;45.018;5.972;2023-03-01T08:01:22;41.93;;;23.00;;
16133;SDS011;8172;45.018;5.972;2023-03-01T08:06:29;38.77;;;22.07;;
16133;SDS011;8172;45.018;5.972;2023-03-01T08:11:36;39.23;;;22.97;;
16133;SDS011;8172;45.018;5.972;2023-03-01T08:16:43;38.90;;;21.73;;
16133;SDS011;8172;45.018;5.972;2023-03-01T08:21:50;37.37;;;21.57;;
16133;SDS011;8172;45.018;5.972;2023-03-01T08:26:57;42.90;;;22.07;;
16133;SDS011;8172;45.018;5.972;2023-03-01T08:32:04;39.07;;;20.57;;
16133;SDS011;8172;45.018;5.972;2023-03-01T08:37:12;36.00;;;20.73;;
16133;SDS011;8172;45.018;5.972;2023-03-01T08:42:19;33.53;;;19.83;;
16133;SDS011;8172;45.018;5.972;2023-03-01T08:47:25;32.07;;;19.67;;
16133;SDS011;8172;45.018;5.972;2023-03-01T08:52:33;34.37;;;19.47;;
16133;SDS011;8172;45.018;5.972;2023-03-01T08:57:41;37.17;;;21.57;;
16133;SDS011;8172;45.018;5.972;2023-03-01T09:02:49;36.70;;;20.77;;
16133;SDS011;8172;45.018;5.972;2023-03-01T09:07:56;37.07;;;20.63;;
16133;SDS011;8172;45.018;5.972;2023-03-01T09:13:04;38.73;;;21.57;;
16133;SDS011;8172;45.018;5.972;2023-03-01T09:18:11;33.63;;;19.33;;
16133;SDS011;8172;45.018;5.972;2023-03-01T09:23:17;35.60;;;21.47;;
16133;SDS011;8172;45.018;5.972;2023-03-01T09:28:25;34.57;;;20.40;;
16133;SDS011;8172;45.018;5.972;2023-03-01T09:33:33;38.30;;;21.23;;
16133;SDS011;8172;45.018;5.972;2023-03-01T09:38:41;34.30;;;20.60;;
16133;SDS011;8172;45.018;5.972;2023-03-01T09:49:01;35.60;;;20.37;;
16133;SDS011;8172;45.018;5.972;2023-03-01T09:54:09;35.50;;;20.57;;
16133;SDS011;8172;45.018;5.972;2023-03-01T09:59:21;35.90;;;20.13;;
16133;SDS011;8172;45.018;5.972;2023-03-01T10:04:28;37.47;;;21.10;;
16133;SDS011;8172;45.018;5.972;2023-03-01T10:09:37;34.83;;;20.00;;
16133;SDS011;8172;45.018;5.972;2023-03-01T10:19:56;35.57;;;20.13;;
16133;SDS011;8172;45.018;5.972;2023-03-01T10:25:06;36.43;;;20.03;;
16133;SDS011;8172;45.018;5.972;2023-03-01T10:35:25;32.80;;;19.90;;
16133;SDS011;8172;45.018;5.972;2023-03-01T10:40:35;35.60;;;19.37;;
16133;SDS011;8172;45.018;5.972;2023-03-01T10:45:44;31.53;;;18.40;;
16133;SDS011;8172;45.018;5.972;2023-03-01T10:56:02;29.77;;;17.80;;
16133;SDS011;8172;45.018;5.972;2023-03-01T11:06:20;28.97;;;17.00;;
16133;SDS011;8172;45.018;5.972;2023-03-01T11:11:30;26.60;;;16.60;;
16133;SDS011;8172;45.018;5.972;2023-03-01T11:16:38;28.33;;;17.27;;
16133;SDS011;8172;45.018;5.972;2023-03-01T11:26:56;28.73;;;17.20;;
16133;SDS011;8172;45.018;5.972;2023-03-01T11:32:06;25.87;;;16.67;;
16133;SDS011;8172;45.018;5.972;2023-03-01T11:37:16;27.87;;;17.03;;
16133;SDS011;8172;45.018;5.972;2023-03-01T11:47:41;25.50;;;15.57;;
16133;SDS011;8172;45.018;5.972;2023-03-01T11:58:00;32.87;;;19.23;;
16133;SDS011;8172;45.018;5.972;2023-03-01T12:28:49;30.80;;;18.07;;
16133;SDS011;8172;45.018;5.972;2023-03-01T12:54:28;28.90;;;17.63;;
16133;SDS011;8172;45.018;5.972;2023-03-01T13:15:01;27.07;;;18.13;;
16133;SDS011;8172;45.018;5.972;2023-03-01T13:20:11;28.37;;;18.27;;
16133;SDS011;8172;45.018;5.972;2023-03-01T13:25:19;27.93;;;18.20;;
16133;SDS011;8172;45.018;5.972;2023-03-01T13:45:55;29.80;;;18.73;;
16133;SDS011;8172;45.018;5.972;2023-03-01T13:51:04;28.60;;;17.73;;
16133;SDS011;8172;45.018;5.972;2023-03-01T13:56:15;31.63;;;19.43;;
16133;SDS011;8172;45.018;5.972;2023-03-01T14:06:30;31.43;;;18.27;;
16133;SDS011;8172;45.018;5.972;2023-03-01T14:32:20;32.43;;;19.83;;
16133;SDS011;8172;45.018;5.972;2023-03-01T14:37:29;29.30;;;19.17;;
16133;SDS011;8172;45.018;5.972;2023-03-01T14:42:38;30.23;;;19.27;;
16133;SDS011;8172;45.018;5.972;2023-03-01T14:47:45;31.63;;;18.87;;
16133;SDS011;8172;45.018;5.972;2023-03-01T14:52:54;32.13;;;19.67;;
16133;SDS011;8172;45.018;5.972;2023-03-01T14:58:08;33.27;;;20.70;;
16133;SDS011;8172;45.018;5.972;2023-03-01T15:03:19;31.23;;;19.20;;
16133;SDS011;8172;45.018;5.972;2023-03-01T15:08:25;29.97;;;19.43;;
16133;SDS011;8172;45.018;5.972;2023-03-01T15:13:35;32.97;;;19.97;;
16133;SDS011;8172;45.018;5.972;2023-03-01T15:23:54;32.23;;;19.40;;
16133;SDS011;8172;45.018;5.972;2023-03-01T15:29:02;32.00;;;19.30;;
16133;SDS011;8172;45.018;5.972;2023-03-01T15:34:19;34.63;;;20.47;;
16133;SDS011;8172;45.018;5.972;2023-03-01T15:44:30;35.97;;;21.43;;
16133;SDS011;8172;45.018;5.972;2023-03-01T15:49:41;35.23;;;21.83;;
16133;SDS011;8172;45.018;5.972;2023-03-01T15:54:51;34.77;;;22.03;;
16133;SDS011;8172;45.018;5.972;2023-03-01T15:59:58;37.30;;;21.50;;
16133;SDS011;8172;45.018;5.972;2023-03-01T16:10:16;37.93;;;23.40;;
16133;SDS011;8172;45.018;5.972;2023-03-01T16:15:28;37.80;;;22.17;;
16133;SDS011;8172;45.018;5.972;2023-03-01T16:20:36;41.33;;;22.97;;
16133;SDS011;8172;45.018;5.972;2023-03-01T16:25:43;36.03;;;22.07;;
16133;SDS011;8172;45.018;5.972;2023-03-01T16:30:50;40.33;;;22.73;;
16133;SDS011;8172;45.018;5.972;2023-03-01T16:35:57;40.60;;;24.33;;
16133;SDS011;8172;45.018;5.972;2023-03-01T16:41:05;46.90;;;24.57;;
16133;SDS011;8172;45.018;5.972;2023-03-01T16:46:14;43.23;;;24.80;;
16133;SDS011;8172;45.018;5.972;2023-03-01T16:51:23;39.70;;;23.60;;
16133;SDS011;8172;45.018;5.972;2023-03-01T16:56:30;42.17;;;24.83;;
16133;SDS011;8172;45.018;5.972;2023-03-01T17:01:39;39.97;;;24.63;;
16133;SDS011;8172;45.018;5.972;2023-03-01T17:06:46;42.80;;;25.87;;
16133;SDS011;8172;45.018;5.972;2023-03-01T17:11:53;41.30;;;24.27;;
16133;SDS011;8172;45.018;5.972;2023-03-01T17:17:00;45.37;;;26.10;;
16133;SDS011;8172;45.018;5.972;2023-03-01T17:22:07;44.40;;;25.83;;
16133;SDS011;8172;45.018;5.972;2023-03-01T17:27:15;43.57;;;25.37;;
16133;SDS011;8172;45.018;5.972;2023-03-01T17:32:23;46.27;;;26.37;;
16133;SDS011;8172;45.018;5.972;2023-03-01T17:37:30;44.57;;;26.83;;
16133;SDS011;8172;45.018;5.972;2023-03-01T17:42:37;42.63;;;26.07;;
16133;SDS011;8172;45.018;5.972;2023-03-01T17:47:44;46.00;;;27.00;;
16133;SDS011;8172;45.018;5.972;2023-03-01T17:52:51;49.57;;;26.83;;
16133;SDS011;8172;45.018;5.972;2023-03-01T17:57:59;43.53;;;25.70;;
16133;SDS011;8172;45.018;5.972;2023-03-01T18:03:06;44.03;;;25.83;;
16133;SDS011;8172;45.018;5.972;2023-03-01T18:08:13;44.90;;;25.77;;
16133;SDS011;8172;45.018;5.972;2023-03-01T18:13:20;46.80;;;26.57;;
16133;SDS011;8172;45.018;5.972;2023-03-01T18:18:27;44.97;;;26.13;;
16133;SDS011;8172;45.018;5.972;2023-03-01T18:23:34;44.80;;;25.53;;
16133;SDS011;8172;45.018;5.972;2023-03-01T18:28:43;47.00;;;26.87;;
16133;SDS011;8172;45.018;5.972;2023-03-01T18:33:52;45.33;;;25.03;;
16133;SDS011;8172;45.018;5.972;2023-03-01T18:39:00;45.93;;;27.87;;
16133;SDS011;8172;45.018;5.972;2023-03-01T18:44:09;50.60;;;26.93;;
16133;SDS011;8172;45.018;5.972;2023-03-01T18:49:17;45.83;;;26.47;;
16133;SDS011;8172;45.018;5.972;2023-03-01T18:54:25;45.07;;;26.87;;
16133;SDS011;8172;45.018;5.972;2023-03-01T18:59:32;46.57;;;25.87;;
16133;SDS011;8172;45.018;5.972;2023-03-01T19:04:41;49.70;;;27.73;;
16133;SDS011;8172;45.018;5.972;2023-03-01T19:09:48;45.77;;;27.00;;
16133;SDS011;8172;45.018;5.972;2023-03-01T19:14:56;50.53;;;27.20;;
16133;SDS011;8172;45.018;5.972;2023-03-01T19:20:03;46.87;;;26.80;;
16133;SDS011;8172;45.018;5.972;2023-03-01T19:25:11;47.13;;;27.27;;
16133;SDS011;8172;45.018;5.972;2023-03-01T19:30:18;48.93;;;27.27;;
16133;SDS011;8172;45.018;5.972;2023-03-01T19:35:25;55.43;;;31.90;;
16133;SDS011;8172;45.018;5.972;2023-03-01T19:40:32;45.83;;;26.40;;
16133;SDS011;8172;45.018;5.972;2023-03-01T19:45:41;47.27;;;26.67;;
16133;SDS011;8172;45.018;5.972;2023-03-01T19:50:50;52.60;;;27.80;;
16133;SDS011;8172;45.018;5.972;2023-03-01T19:55:58;50.83;;;28.30;;
16133;SDS011;8172;45.018;5.972;2023-03-01T20:06:17;48.30;;;28.07;;
16133;SDS011;8172;45.018;5.972;2023-03-01T20:11:25;54.40;;;28.90;;
16133;SDS011;8172;45.018;5.972;2023-03-01T20:16:32;52.07;;;27.93;;
16133;SDS011;8172;45.018;5.972;2023-03-01T20:21:40;49.90;;;28.17;;
16133;SDS011;8172;45.018;5.972;2023-03-01T20:26:47;55.33;;;29.13;;
16133;SDS011;8172;45.018;5.972;2023-03-01T20:31:55;53.17;;;28.73;;
16133;SDS011;8172;45.018;5.972;2023-03-01T20:37:02;54.90;;;30.73;;
16133;SDS011;8172;45.018;5.972;2023-03-01T20:42:09;55.90;;;30.07;;
16133;SDS011;8172;45.018;5.972;2023-03-01T20:47:16;55.23;;;30.23;;
16133;SDS011;8172;45.018;5.972;2023-03-01T20:52:25;52.90;;;28.63;;
16133;SDS011;8172;45.018;5.972;2023-03-01T20:57:33;55.43;;;29.97;;
16133;SDS011;8172;45.018;5.972;2023-03-01T21:02:41;55.23;;;30.60;;
16133;SDS011;8172;45.018;5.972;2023-03-01T21:07:49;56.97;;;27.97;;
16133;SDS011;8172;45.018;5.972;2023-03-01T21:12:55;47.83;;;27.63;;
16133;SDS011;8172;45.018;5.972;2023-03-01T21:18:02;54.30;;;29.73;;
16133;SDS011;8172;45.018;5.972;2023-03-01T21:23:09;56.60;;;30.37;;
16133;SDS011;8172;45.018;5.972;2023-03-01T21:28:16;56.40;;;30.13;;
16133;SDS011;8172;45.018;5.972;2023-03-01T21:33:23;59.80;;;32.10;;
16133;SDS011;8172;45.018;5.972;2023-03-01T21:38:32;57.60;;;30.37;;
16133;SDS011;8172;45.018;5.972;2023-03-01T21:43:41;81.33;;;39.13;;
16133;SDS011;8172;45.018;5.972;2023-03-01T21:48:49;61.57;;;32.03;;
16133;SDS011;8172;45.018;5.972;2023-03-01T21:53:58;56.37;;;29.63;;
16133;SDS011;8172;45.018;5.972;2023-03-01T21:59:06;58.23;;;29.93;;
16133;SDS011;8172;45.018;5.972;2023-03-01T22:04:15;62.23;;;32.00;;
16133;SDS011;8172;45.018;5.972;2023-03-01T22:09:26;62.70;;;32.47;;
16133;SDS011;8172;45.018;5.972;2023-03-01T22:14:33;58.00;;;31.03;;
16133;SDS011;8172;45.018;5.972;2023-03-01T22:19:40;63.13;;;31.70;;
16133;SDS011;8172;45.018;5.972;2023-03-01T22:24:47;63.90;;;32.93;;
16133;SDS011;8172;45.018;5.972;2023-03-01T22:29:54;65.60;;;32.40;;
16133;SDS011;8172;45.018;5.972;2023-03-01T22:35:01;64.87;;;32.23;;
16133;SDS011;8172;45.018;5.972;2023-03-01T22:40:08;69.33;;;33.00;;
16133;SDS011;8172;45.018;5.972;2023-03-01T22:45:15;66.03;;;32.47;;
16133;SDS011;8172;45.018;5.972;2023-03-01T22:50:23;63.77;;;33.00;;
16133;SDS011;8172;45.018;5.972;2023-03-01T22:55:30;71.73;;;34.83;;
16133;SDS011;8172;45.018;5.972;2023-03-01T23:00:37;69.70;;;32.90;;
16133;SDS011;8172;45.018;5.972;2023-03-01T23:05:44;68.23;;;32.03;;
16133;SDS011;8172;45.018;5.972;2023-03-01T23:10:52;69.53;;;33.63;;
16133;SDS011;8172;45.018;5.972;2023-03-01T23:15:59;73.13;;;34.17;;
16133;SDS011;8172;45.018;5.972;2023-03-01T23:21:08;68.83;;;33.43;;
16133;SDS011;8172;45.018;5.972;2023-03-01T23:26:16;65.27;;;32.00;;
16133;SDS011;8172;45.018;5.972;2023-03-01T23:31:25;63.90;;;31.67;;
16133;SDS011;8172;45.018;5.972;2023-03-01T23:36:34;73.00;;;33.80;;
16133;SDS011;8172;45.018;5.972;2023-03-01T23:41:43;58.60;;;29.53;;
16133;SDS011;8172;45.018;5.972;2023-03-01T23:46:52;62.30;;;32.20;;
16133;SDS011;8172;45.018;5.972;2023-03-01T23:51:59;52.43;;;29.23;;
16133;SDS011;8172;45.018;5.972;2023-03-01T23:57:06;55.90;;;30.70;;
